createdAt,value
2023-02-19T00:00:16.247Z,8.57
2023-02-19T00:01:20.371Z,8.59
2023-02-19T00:02:23.067Z,8.61
2023-02-19T00:03:25.220Z,8.67
2023-02-19T00:04:28.064Z,8.66
2023-02-19T00:05:29.788Z,8.61
2023-02-19T00:06:34.118Z,8.70
2023-02-19T00:07:35.838Z,8.61
2023-02-19T00:08:42.117Z,8.65
2023-02-19T00:09:43.999Z,8.70
2023-02-19T00:10:48.130Z,8.65
2023-02-19T00:11:49.903Z,8.56
2023-02-19T00:12:52.891Z,8.62
2023-02-19T00:13:55.824Z,8.68
2023-02-19T00:14:59.648Z,8.61
2023-02-19T00:16:06.020Z,8.65
2023-02-19T00:17:08.802Z,8.58
2023-02-19T00:18:10.543Z,8.61
2023-02-19T00:19:15.776Z,8.63
2023-02-19T00:20:17.810Z,8.67
2023-02-19T00:21:20.522Z,8.64
2023-02-19T00:22:22.214Z,8.63
2023-02-19T00:23:24.936Z,8.66
2023-02-19T00:24:27.599Z,8.63
2023-02-19T00:25:29.348Z,8.60
2023-02-19T00:26:33.810Z,8.60
2023-02-19T00:27:35.490Z,8.64
2023-02-19T00:28:38.305Z,8.57
2023-02-19T00:29:40.102Z,8.54
2023-02-19T00:30:42.835Z,8.58
2023-02-19T00:31:46.128Z,8.65
2023-02-19T00:32:50.762Z,8.63
2023-02-19T00:33:55.122Z,8.59
2023-02-19T00:34:56.783Z,8.63
2023-02-19T00:36:01.310Z,8.62
2023-02-19T00:37:04.026Z,8.59
2023-02-19T00:38:05.750Z,8.50
2023-02-19T00:39:09.575Z,8.50
2023-02-19T00:40:11.425Z,8.54
2023-02-19T00:41:20.694Z,8.52
2023-02-19T00:42:23.710Z,8.54
2023-02-19T00:43:26.395Z,8.52
2023-02-19T00:44:28.144Z,8.44
2023-02-19T00:45:30.855Z,8.42
2023-02-19T00:46:35.529Z,8.36
2023-02-19T00:47:38.247Z,8.41
2023-02-19T00:48:40.072Z,8.28
2023-02-19T00:49:42.899Z,8.24
2023-02-19T00:50:44.733Z,8.32
2023-02-19T00:51:47.559Z,8.33
2023-02-19T00:52:49.277Z,8.25
2023-02-19T00:53:52.384Z,8.30
2023-02-19T00:54:54.198Z,8.42
2023-02-19T00:55:56.901Z,8.43
2023-02-19T00:56:59.569Z,8.43
2023-02-19T00:58:02.686Z,8.45
2023-02-19T00:59:05.524Z,8.43
2023-02-19T01:00:08.367Z,8.47
2023-02-19T01:01:12.500Z,8.38
2023-02-19T01:02:14.283Z,8.46
2023-02-19T01:03:16.976Z,8.47
2023-02-19T01:04:18.698Z,8.47
2023-02-19T01:05:21.384Z,8.46
2023-02-19T01:06:23.344Z,8.48
2023-02-19T01:07:26.120Z,8.34
2023-02-19T01:08:28.090Z,8.28
2023-02-19T01:09:30.907Z,8.31
2023-02-19T01:10:32.645Z,8.41
2023-02-19T01:11:35.382Z,8.35
2023-02-19T01:12:37.086Z,8.42
2023-02-19T01:13:41.813Z,8.31
2023-02-19T01:14:43.659Z,8.24
2023-02-19T01:15:46.568Z,8.21
2023-02-19T01:16:48.331Z,8.23
2023-02-19T01:17:51.039Z,8.23
2023-02-19T01:18:52.734Z,8.26
2023-02-19T01:19:55.379Z,8.28
2023-02-19T01:20:57.136Z,8.36
2023-02-19T01:21:59.886Z,8.38
2023-02-19T01:23:01.635Z,8.40
2023-02-19T01:24:04.583Z,8.32
2023-02-19T01:25:06.767Z,8.37
2023-02-19T01:26:10.838Z,8.39
2023-02-19T01:27:12.551Z,8.38
2023-02-19T01:28:15.214Z,8.45
2023-02-19T01:29:19.240Z,8.34
2023-02-19T01:30:21.018Z,8.39
2023-02-19T01:31:25.198Z,8.36
2023-02-19T01:32:27.997Z,8.42
2023-02-19T01:33:29.902Z,8.32
2023-02-19T01:34:34.287Z,8.29
2023-02-19T01:35:39.174Z,8.30
2023-02-19T01:36:41.945Z,8.36
2023-02-19T01:37:43.689Z,8.36
2023-02-19T01:38:47.077Z,8.35
2023-02-19T01:39:48.856Z,8.33
2023-02-19T01:40:56.334Z,8.31
2023-02-19T01:41:59.579Z,8.20
2023-02-19T01:43:01.301Z,8.19
2023-02-19T01:44:07.873Z,8.20
2023-02-19T01:45:21.270Z,8.31
2023-02-19T01:46:26.609Z,8.28
2023-02-19T01:47:28.315Z,8.23
2023-02-19T01:48:32.868Z,8.27
2023-02-19T01:49:37.146Z,8.24
2023-02-19T01:50:43.058Z,8.27
2023-02-19T01:51:47.482Z,8.25
2023-02-19T01:52:50.163Z,8.28
2023-02-19T01:53:54.959Z,8.33
2023-02-19T01:54:57.978Z,8.27
2023-02-19T01:56:00.683Z,8.24
2023-02-19T01:57:06.620Z,8.29
2023-02-19T01:58:10.213Z,8.30
2023-02-19T01:59:13.324Z,8.30
2023-02-19T02:00:16.522Z,8.35
2023-02-19T02:01:20.740Z,8.36
2023-02-19T02:02:23.758Z,8.38
2023-02-19T02:03:26.555Z,8.25
2023-02-19T02:04:30.550Z,8.17
2023-02-19T02:05:46.090Z,8.25
2023-02-19T02:06:50.406Z,8.31
2023-02-19T02:08:10.795Z,8.28
2023-02-19T02:09:31.452Z,8.19
2023-02-19T02:10:35.046Z,8.15
2023-02-19T02:11:36.806Z,8.15
2023-02-19T02:12:39.482Z,8.18
2023-02-19T02:13:41.233Z,8.09
2023-02-19T02:14:46.607Z,8.09
2023-02-19T02:15:52.811Z,8.04
2023-02-19T02:17:03.111Z,8.10
2023-02-19T02:18:10.562Z,8.07
2023-02-19T02:19:31.460Z,8.12
2023-02-19T02:20:40.133Z,8.17
2023-02-19T02:21:59.994Z,8.13
2023-02-19T02:23:09.021Z,8.15
2023-02-19T02:24:26.408Z,8.09
2023-02-19T02:25:56.464Z,8.06
2023-02-19T02:27:22.792Z,8.04
2023-02-19T02:28:44.491Z,8.02
2023-02-19T02:30:25.369Z,8.11
2023-02-19T02:31:30.430Z,8.10
2023-02-19T02:32:35.590Z,8.12
2023-02-19T02:33:42.490Z,8.08
2023-02-19T02:34:48.377Z,8.07
2023-02-19T02:35:54.180Z,8.10
2023-02-19T02:36:56.859Z,8.12
2023-02-19T02:38:02.472Z,8.09
2023-02-19T02:39:07.240Z,8.08
2023-02-19T02:40:12.084Z,8.10
2023-02-19T02:41:14.767Z,8.05
2023-02-19T02:42:29.350Z,8.13
2023-02-19T02:43:31.281Z,8.11
2023-02-19T02:44:35.929Z,8.04
2023-02-19T02:45:40.008Z,8.08
2023-02-19T02:46:45.221Z,8.11
2023-02-19T02:47:49.694Z,8.07
2023-02-19T02:48:55.440Z,8.01
2023-02-19T02:50:05.208Z,8.09
2023-02-19T02:51:13.882Z,8.08
2023-02-19T02:52:37.199Z,8.03
2023-02-19T02:54:01.727Z,8.03
2023-02-19T02:55:08.102Z,7.97
2023-02-19T02:56:11.539Z,7.94
2023-02-19T02:57:15.018Z,7.99
2023-02-19T02:58:18.169Z,8.05
2023-02-19T02:59:22.275Z,8.05
2023-02-19T03:00:25.803Z,8.08
2023-02-19T03:01:49.432Z,8.07
2023-02-19T03:02:51.148Z,8.00
2023-02-19T03:03:58.311Z,7.99
2023-02-19T03:05:22.132Z,7.99
2023-02-19T03:06:27.129Z,8.02
2023-02-19T03:07:36.487Z,8.03
2023-02-19T03:08:41.853Z,7.91
2023-02-19T03:09:44.765Z,7.94
2023-02-19T03:10:52.877Z,7.99
2023-02-19T03:12:14.022Z,7.96
2023-02-19T03:13:37.303Z,7.97
2023-02-19T03:15:02.592Z,8.01
2023-02-19T03:16:27.975Z,7.98
2023-02-19T03:17:52.594Z,8.02
2023-02-19T03:19:13.434Z,8.04
2023-02-19T03:20:17.270Z,8.05
2023-02-19T03:21:21.073Z,8.07
2023-02-19T03:22:26.471Z,8.08
2023-02-19T03:23:44.867Z,8.03
2023-02-19T03:25:09.167Z,8.01
2023-02-19T03:26:11.109Z,7.99
2023-02-19T03:27:15.622Z,7.93
2023-02-19T03:28:18.329Z,7.98
2023-02-19T03:29:26.221Z,7.96
2023-02-19T03:30:31.047Z,8.01
2023-02-19T03:31:33.437Z,7.97
2023-02-19T03:32:41.434Z,7.93
2023-02-19T03:33:43.612Z,7.92
2023-02-19T03:34:49.579Z,7.95
2023-02-19T03:35:56.443Z,7.89
2023-02-19T03:37:02.163Z,7.86
2023-02-19T03:38:07.468Z,7.92
2023-02-19T03:39:12.927Z,7.89
2023-02-19T03:40:15.242Z,7.89
2023-02-19T03:41:24.490Z,7.87
2023-02-19T03:42:33.097Z,7.79
2023-02-19T03:43:39.547Z,7.83
2023-02-19T03:44:45.024Z,7.87
2023-02-19T03:45:54.660Z,7.94
2023-02-19T03:47:03.563Z,8.03
2023-02-19T03:48:20.580Z,8.01
2023-02-19T03:49:24.890Z,7.93
2023-02-19T03:50:30.797Z,7.89
2023-02-19T03:51:39.169Z,7.97
2023-02-19T03:52:44.393Z,7.94
2023-02-19T03:53:52.568Z,7.97
2023-02-19T03:54:59.386Z,7.96
2023-02-19T03:56:07.570Z,7.94
2023-02-19T03:57:15.995Z,7.97
2023-02-19T03:58:21.240Z,7.79
2023-02-19T03:59:28.843Z,7.85
2023-02-19T04:00:32.844Z,7.77
2023-02-19T04:01:40.730Z,7.78
2023-02-19T04:02:46.746Z,7.87
2023-02-19T04:03:54.869Z,7.87
2023-02-19T04:04:59.450Z,7.78
2023-02-19T04:06:04.976Z,7.79
2023-02-19T04:07:06.932Z,7.76
2023-02-19T04:08:13.564Z,7.85
2023-02-19T04:09:15.662Z,7.82
2023-02-19T04:10:19.029Z,7.91
2023-02-19T04:11:21.593Z,7.96
2023-02-19T04:12:24.804Z,7.90
2023-02-19T04:13:30.446Z,7.91
2023-02-19T04:14:36.786Z,7.89
2023-02-19T04:15:41.741Z,7.92
2023-02-19T04:16:48.579Z,7.99
2023-02-19T04:17:53.603Z,7.95
2023-02-19T04:19:00.777Z,7.96
2023-02-19T04:20:05.526Z,8.04
2023-02-19T04:21:09.110Z,7.98
2023-02-19T04:22:12.540Z,7.98
2023-02-19T04:23:17.615Z,7.92
2023-02-19T04:24:22.344Z,7.97
2023-02-19T04:25:25.558Z,8.04
2023-02-19T04:26:29.899Z,8.03
2023-02-19T04:27:32.814Z,8.00
2023-02-19T04:28:34.887Z,7.97
2023-02-19T04:29:39.233Z,7.98
2023-02-19T04:30:41.325Z,8.02
2023-02-19T04:31:44.219Z,8.07
2023-02-19T04:32:48.594Z,8.04
2023-02-19T04:33:51.329Z,8.07
2023-02-19T04:34:54.498Z,8.05
2023-02-19T04:35:57.190Z,8.10
2023-02-19T04:36:59.879Z,8.08
2023-02-19T04:38:01.562Z,8.16
2023-02-19T04:39:04.272Z,8.16
2023-02-19T04:40:06.800Z,8.16
2023-02-19T04:41:10.627Z,8.17
2023-02-19T04:42:13.404Z,8.17
2023-02-19T04:43:15.090Z,8.23
2023-02-19T04:44:17.877Z,8.10
2023-02-19T04:45:19.570Z,8.00
2023-02-19T04:46:22.370Z,8.14
2023-02-19T04:47:24.116Z,8.18
2023-02-19T04:48:26.898Z,8.23
2023-02-19T04:49:28.852Z,8.19
2023-02-19T04:50:32.978Z,8.17
2023-02-19T04:51:34.743Z,8.12
2023-02-19T04:52:37.506Z,8.11
2023-02-19T04:53:39.201Z,8.04
2023-02-19T04:54:41.994Z,7.98
2023-02-19T04:55:43.701Z,8.02
2023-02-19T04:56:46.419Z,7.99
2023-02-19T04:57:48.214Z,8.02
2023-02-19T04:58:50.991Z,7.97
2023-02-19T04:59:52.802Z,8.05
2023-02-19T05:00:55.459Z,7.97
2023-02-19T05:01:57.886Z,7.99
2023-02-19T05:03:00.952Z,7.92
2023-02-19T05:04:04.892Z,7.88
2023-02-19T05:05:07.864Z,7.88
2023-02-19T05:06:13.218Z,7.92
2023-02-19T05:07:16.171Z,7.95
2023-02-19T05:08:17.941Z,7.98
2023-02-19T05:09:20.966Z,7.99
2023-02-19T05:10:22.688Z,8.02
2023-02-19T05:11:25.393Z,7.93
2023-02-19T05:12:27.128Z,7.86
2023-02-19T05:13:30.044Z,7.89
2023-02-19T05:14:32.932Z,7.95
2023-02-19T05:15:34.736Z,7.95
2023-02-19T05:16:37.420Z,7.95
2023-02-19T05:17:39.143Z,7.81
2023-02-19T05:18:42.385Z,7.87
2023-02-19T05:19:44.267Z,7.85
2023-02-19T05:20:46.936Z,7.85
2023-02-19T05:21:50.022Z,7.96
2023-02-19T05:22:52.844Z,7.85
2023-02-19T05:23:54.511Z,7.83
2023-02-19T05:24:57.232Z,7.83
2023-02-19T05:25:58.963Z,7.82
2023-02-19T05:27:01.755Z,7.84
2023-02-19T05:28:17.077Z,7.88
2023-02-19T05:29:19.891Z,7.93
2023-02-19T05:30:21.645Z,7.97
2023-02-19T05:31:24.805Z,7.97
2023-02-19T05:32:26.650Z,8.02
2023-02-19T05:33:29.354Z,8.03
2023-02-19T05:34:31.260Z,8.05
2023-02-19T05:35:33.985Z,8.02
2023-02-19T05:36:37.165Z,7.95
2023-02-19T05:37:41.183Z,7.97
2023-02-19T05:38:43.272Z,7.96
2023-02-19T05:39:45.977Z,7.97
2023-02-19T05:40:48.096Z,8.00
2023-02-19T05:41:50.805Z,8.04
2023-02-19T05:42:52.481Z,7.99
2023-02-19T05:43:55.656Z,7.95
2023-02-19T05:44:57.353Z,8.04
2023-02-19T05:46:00.274Z,8.04
2023-02-19T05:47:02.992Z,8.05
2023-02-19T05:48:05.746Z,8.06
2023-02-19T05:49:08.459Z,7.99
2023-02-19T05:50:10.236Z,8.05
2023-02-19T05:51:14.202Z,7.99
2023-02-19T05:52:15.937Z,8.01
2023-02-19T05:53:20.019Z,8.03
2023-02-19T05:54:21.701Z,8.05
2023-02-19T05:55:24.498Z,8.06
2023-02-19T05:56:34.172Z,8.10
2023-02-19T05:57:43.431Z,8.13
2023-02-19T05:58:45.432Z,8.04
2023-02-19T05:59:48.072Z,8.08
2023-02-19T06:00:49.841Z,8.09
2023-02-19T06:01:53.936Z,8.10
2023-02-19T06:02:55.774Z,8.13
2023-02-19T06:03:58.856Z,8.14
2023-02-19T06:05:00.608Z,8.09
2023-02-19T06:06:04.671Z,8.06
2023-02-19T06:07:06.332Z,8.04
2023-02-19T06:08:09.002Z,7.95
2023-02-19T06:09:12.288Z,8.02
2023-02-19T06:10:14.981Z,8.08
2023-02-19T06:11:16.950Z,8.10
2023-02-19T06:12:19.630Z,8.08
2023-02-19T06:13:21.312Z,8.03
2023-02-19T06:14:24.040Z,8.05
2023-02-19T06:15:25.771Z,8.01
2023-02-19T06:16:28.786Z,8.08
2023-02-19T06:17:30.639Z,8.09
2023-02-19T06:18:33.404Z,8.09
2023-02-19T06:19:35.121Z,8.09
2023-02-19T06:20:37.779Z,8.05
2023-02-19T06:21:39.535Z,8.02
2023-02-19T06:22:42.206Z,7.96
2023-02-19T06:23:44.330Z,7.96
2023-02-19T06:24:48.913Z,7.94
2023-02-19T06:25:50.579Z,7.92
2023-02-19T06:26:53.328Z,7.91
2023-02-19T06:27:55.131Z,7.94
2023-02-19T06:28:57.773Z,7.92
2023-02-19T06:29:59.626Z,7.85
2023-02-19T06:31:02.438Z,7.86
2023-02-19T06:32:04.906Z,7.89
2023-02-19T06:33:07.613Z,7.96
2023-02-19T06:34:09.399Z,7.95
2023-02-19T06:35:12.223Z,8.03
2023-02-19T06:36:15.616Z,8.05
2023-02-19T06:37:18.300Z,8.05
2023-02-19T06:38:21.362Z,7.98
2023-02-19T06:39:24.063Z,7.94
2023-02-19T06:40:27.137Z,7.90
2023-02-19T06:41:29.885Z,7.97
2023-02-19T06:42:32.054Z,7.95
2023-02-19T06:43:35.524Z,7.97
2023-02-19T06:44:37.295Z,7.99
2023-02-19T06:45:39.973Z,8.00
2023-02-19T06:46:41.714Z,7.98
2023-02-19T06:47:44.423Z,8.01
2023-02-19T06:48:46.261Z,7.96
2023-02-19T06:49:48.988Z,7.93
2023-02-19T06:50:50.646Z,7.90
2023-02-19T06:51:53.432Z,7.97
2023-02-19T06:52:55.189Z,7.96
2023-02-19T06:53:58.267Z,7.93
2023-02-19T06:54:59.967Z,8.00
2023-02-19T06:56:06.766Z,7.92
2023-02-19T06:57:08.613Z,7.94
2023-02-19T06:58:11.337Z,7.99
2023-02-19T06:59:16.957Z,8.02
2023-02-19T07:00:19.038Z,8.03
2023-02-19T07:01:21.860Z,8.13
2023-02-19T07:02:23.557Z,7.99
2023-02-19T07:03:27.239Z,8.02
2023-02-19T07:04:29.118Z,8.02
2023-02-19T07:05:31.821Z,8.07
2023-02-19T07:06:34.442Z,8.07
2023-02-19T07:07:37.137Z,8.02
2023-02-19T07:08:38.902Z,8.04
2023-02-19T07:09:41.615Z,8.04
2023-02-19T07:10:43.423Z,8.05
2023-02-19T07:11:47.507Z,8.02
2023-02-19T07:12:49.299Z,7.97
2023-02-19T07:13:55.766Z,7.85
2023-02-19T07:14:58.703Z,7.86
2023-02-19T07:16:01.538Z,7.88
2023-02-19T07:17:04.666Z,7.92
2023-02-19T07:18:10.300Z,7.94
2023-02-19T07:19:13.001Z,7.91
2023-02-19T07:20:14.682Z,7.94
2023-02-19T07:21:18.486Z,7.84
2023-02-19T07:22:20.147Z,7.94
2023-02-19T07:23:22.821Z,7.93
2023-02-19T07:24:25.492Z,8.00
2023-02-19T07:25:27.313Z,7.99
2023-02-19T07:26:29.971Z,7.99
2023-02-19T07:27:33.046Z,7.95
2023-02-19T07:28:35.784Z,8.00
2023-02-19T07:29:38.537Z,8.04
2023-02-19T07:30:40.277Z,8.00
2023-02-19T07:31:44.047Z,7.98
2023-02-19T07:32:45.843Z,7.97
2023-02-19T07:33:49.120Z,8.01
2023-02-19T07:34:50.844Z,7.95
2023-02-19T07:35:53.538Z,8.03
2023-02-19T07:36:56.162Z,8.10
2023-02-19T07:37:57.836Z,8.07
2023-02-19T07:39:00.981Z,8.17
2023-02-19T07:40:02.791Z,8.19
2023-02-19T07:41:06.591Z,8.17
2023-02-19T07:42:09.217Z,8.20
2023-02-19T07:43:12.286Z,8.18
2023-02-19T07:44:16.797Z,8.10
2023-02-19T07:45:18.545Z,8.21
2023-02-19T07:46:21.404Z,8.21
2023-02-19T07:47:23.150Z,8.27
2023-02-19T07:48:26.081Z,8.24
2023-02-19T07:49:28.765Z,8.20
2023-02-19T07:50:31.260Z,8.24
2023-02-19T07:51:34.006Z,8.29
2023-02-19T07:52:35.720Z,8.29
2023-02-19T07:53:38.390Z,8.35
2023-02-19T07:54:40.124Z,8.36
2023-02-19T07:55:42.806Z,8.36
2023-02-19T07:56:45.534Z,8.34
2023-02-19T07:57:47.280Z,8.36
2023-02-19T07:58:51.292Z,8.33
2023-02-19T07:59:53.179Z,8.29
2023-02-19T08:00:55.927Z,8.32
2023-02-19T08:02:16.185Z,8.37
2023-02-19T08:03:18.008Z,8.27
2023-02-19T08:04:20.705Z,8.30
2023-02-19T08:05:22.469Z,8.39
2023-02-19T08:06:25.150Z,8.29
2023-02-19T08:07:31.463Z,8.34
2023-02-19T08:08:34.313Z,8.30
2023-02-19T08:09:38.097Z,8.29
2023-02-19T08:10:58.393Z,8.39
2023-02-19T08:12:18.750Z,8.39
2023-02-19T08:13:22.859Z,8.42
2023-02-19T08:14:28.016Z,8.44
2023-02-19T08:15:29.865Z,8.39
2023-02-19T08:16:42.671Z,8.46
2023-02-19T08:17:45.106Z,8.42
2023-02-19T08:18:48.878Z,8.48
2023-02-19T08:19:50.564Z,8.46
2023-02-19T08:20:53.403Z,8.56
2023-02-19T08:21:56.025Z,8.61
2023-02-19T08:22:57.745Z,8.51
2023-02-19T08:24:00.423Z,8.49
2023-02-19T08:25:02.148Z,8.58
2023-02-19T08:26:05.010Z,8.58
2023-02-19T08:27:07.299Z,8.51
2023-02-19T08:28:11.760Z,8.47
2023-02-19T08:29:14.552Z,8.50
2023-02-19T08:30:17.968Z,8.55
2023-02-19T08:31:20.889Z,8.45
2023-02-19T08:32:22.760Z,8.50
2023-02-19T08:33:25.434Z,8.50
2023-02-19T08:34:28.119Z,8.54
2023-02-19T08:35:29.800Z,8.57
2023-02-19T08:36:32.596Z,8.52
2023-02-19T08:37:34.350Z,8.54
2023-02-19T08:38:37.712Z,8.49
2023-02-19T08:39:39.458Z,8.58
2023-02-19T08:40:42.192Z,8.51
2023-02-19T08:41:44.886Z,8.52
2023-02-19T08:42:46.668Z,8.57
2023-02-19T08:43:49.946Z,8.47
2023-02-19T08:44:51.731Z,8.51
2023-02-19T08:45:56.503Z,8.50
2023-02-19T08:46:59.242Z,8.61
2023-02-19T08:48:01.030Z,8.62
2023-02-19T08:49:03.712Z,8.68
2023-02-19T08:50:06.620Z,8.71
2023-02-19T08:51:11.169Z,8.70
2023-02-19T08:52:13.197Z,8.63
2023-02-19T08:53:15.872Z,8.67
2023-02-19T08:54:17.777Z,8.73
2023-02-19T08:55:20.616Z,8.75
2023-02-19T08:56:22.479Z,8.75
2023-02-19T08:57:25.699Z,8.75
2023-02-19T08:58:27.412Z,8.77
2023-02-19T08:59:30.478Z,8.83
2023-02-19T09:00:32.291Z,8.88
2023-02-19T09:01:36.433Z,8.90
2023-02-19T09:02:39.197Z,8.91
2023-02-19T09:03:41.468Z,8.94
2023-02-19T09:04:44.202Z,8.93
2023-02-19T09:05:46.867Z,8.98
2023-02-19T09:06:49.584Z,9.00
2023-02-19T09:07:51.280Z,9.00
2023-02-19T09:08:53.975Z,9.00
2023-02-19T09:09:55.650Z,9.00
2023-02-19T09:10:59.803Z,8.94
2023-02-19T09:12:01.500Z,8.98
2023-02-19T09:13:04.196Z,9.06
2023-02-19T09:14:07.680Z,9.03
2023-02-19T09:15:10.710Z,9.01
2023-02-19T09:16:13.482Z,9.09
2023-02-19T09:17:17.611Z,9.12
2023-02-19T09:18:19.391Z,9.13
2023-02-19T09:19:22.153Z,9.12
2023-02-19T09:20:23.880Z,9.09
2023-02-19T09:21:26.946Z,9.19
2023-02-19T09:22:28.629Z,9.25
2023-02-19T09:23:31.471Z,9.23
2023-02-19T09:24:33.204Z,9.13
2023-02-19T09:25:35.890Z,9.18
2023-02-19T09:26:38.637Z,9.20
2023-02-19T09:27:41.511Z,9.26
2023-02-19T09:28:43.288Z,9.26
2023-02-19T09:29:46.339Z,9.30
2023-02-19T09:30:49.079Z,9.38
2023-02-19T09:31:50.933Z,9.46
2023-02-19T09:32:55.511Z,9.51
2023-02-19T09:33:57.203Z,9.51
2023-02-19T09:34:59.871Z,9.55
2023-02-19T09:36:02.307Z,9.53
2023-02-19T09:37:04.998Z,9.47
2023-02-19T09:38:07.107Z,9.43
2023-02-19T09:39:12.594Z,9.47
2023-02-19T09:40:21.343Z,9.27
2023-02-19T09:41:27.786Z,9.26
2023-02-19T09:42:31.495Z,9.34
2023-02-19T09:43:34.862Z,9.36
2023-02-19T09:44:38.539Z,9.40
2023-02-19T09:45:42.010Z,9.45
2023-02-19T09:46:45.292Z,9.46
2023-02-19T09:47:48.317Z,9.33
2023-02-19T09:48:52.067Z,9.41
2023-02-19T09:49:56.873Z,9.50
2023-02-19T09:50:59.748Z,9.50
2023-02-19T09:52:07.597Z,9.53
2023-02-19T09:53:14.291Z,9.59
2023-02-19T09:54:22.150Z,9.62
2023-02-19T09:55:32.548Z,9.63
2023-02-19T09:56:35.813Z,9.56
2023-02-19T09:57:37.721Z,9.62
2023-02-19T09:58:45.253Z,9.57
2023-02-19T09:59:49.635Z,9.53
2023-02-19T10:00:53.954Z,9.50
2023-02-19T10:01:59.764Z,9.40
2023-02-19T10:03:06.026Z,9.45
2023-02-19T10:04:11.334Z,9.52
2023-02-19T10:05:14.020Z,9.43
2023-02-19T10:06:21.737Z,9.39
2023-02-19T10:07:25.671Z,9.36
2023-02-19T10:08:27.539Z,9.34
2023-02-19T10:09:31.322Z,9.33
2023-02-19T10:10:35.719Z,9.46
2023-02-19T10:11:37.605Z,9.54
2023-02-19T10:12:42.470Z,9.54
2023-02-19T10:13:46.207Z,9.48
2023-02-19T10:14:51.339Z,9.50
2023-02-19T10:15:56.092Z,9.54
2023-02-19T10:16:59.489Z,9.52
2023-02-19T10:18:02.170Z,9.41
2023-02-19T10:19:11.126Z,9.40
2023-02-19T10:20:17.098Z,9.40
2023-02-19T10:21:23.116Z,9.42
2023-02-19T10:22:26.467Z,9.34
2023-02-19T10:23:28.213Z,9.31
2023-02-19T10:24:31.134Z,9.32
2023-02-19T10:25:34.231Z,9.32
2023-02-19T10:26:36.923Z,9.33
2023-02-19T10:27:38.779Z,9.16
2023-02-19T10:28:41.504Z,9.17
2023-02-19T10:29:44.082Z,9.18
2023-02-19T10:30:50.401Z,9.25
2023-02-19T10:32:14.483Z,9.28
2023-02-19T10:33:17.758Z,9.26
2023-02-19T10:34:22.165Z,9.21
2023-02-19T10:35:26.355Z,9.20
2023-02-19T10:36:32.107Z,9.22
2023-02-19T10:37:34.586Z,9.28
2023-02-19T10:38:39.386Z,9.23
2023-02-19T10:39:42.891Z,9.15
2023-02-19T10:40:46.517Z,9.20
2023-02-19T10:41:48.790Z,9.22
2023-02-19T10:42:54.840Z,9.28
2023-02-19T10:44:06.572Z,9.28
2023-02-19T10:45:18.947Z,9.25
2023-02-19T10:46:24.207Z,9.24
2023-02-19T10:47:26.973Z,9.29
2023-02-19T10:48:31.840Z,9.25
2023-02-19T10:49:36.158Z,9.10
2023-02-19T10:50:44.479Z,9.00
2023-02-19T10:51:47.790Z,8.97
2023-02-19T10:52:52.591Z,8.99
2023-02-19T10:54:06.933Z,9.10
2023-02-19T10:55:20.849Z,9.27
2023-02-19T10:56:25.399Z,9.26
2023-02-19T10:57:32.657Z,9.24
2023-02-19T10:58:37.724Z,9.20
2023-02-19T10:59:49.578Z,9.08
2023-02-19T11:01:14.970Z,9.16
2023-02-19T11:02:19.317Z,9.17
2023-02-19T11:03:22.356Z,9.20
2023-02-19T11:04:25.904Z,9.24
2023-02-19T11:05:27.648Z,9.22
2023-02-19T11:06:33.418Z,9.11
2023-02-19T11:07:36.736Z,9.11
2023-02-19T11:08:55.351Z,9.15
2023-02-19T11:09:57.502Z,9.13
2023-02-19T11:11:00.220Z,9.19
2023-02-19T11:12:01.965Z,9.25
2023-02-19T11:13:06.144Z,9.31
2023-02-19T11:14:16.689Z,9.33
2023-02-19T11:15:21.340Z,9.37
2023-02-19T11:16:24.897Z,9.36
2023-02-19T11:17:29.432Z,9.32
2023-02-19T11:18:32.583Z,9.17
2023-02-19T11:19:37.930Z,9.23
2023-02-19T11:20:48.251Z,9.35
2023-02-19T11:21:51.953Z,9.45
2023-02-19T11:22:59.117Z,9.55
2023-02-19T11:24:03.663Z,9.57
2023-02-19T11:25:07.144Z,9.63
2023-02-19T11:26:18.897Z,9.74
2023-02-19T11:27:24.100Z,9.80
2023-02-19T11:28:31.636Z,9.87
2023-02-19T11:29:35.715Z,9.97
2023-02-19T11:30:40.117Z,10.01
2023-02-19T11:31:42.884Z,10.11
2023-02-19T11:32:44.636Z,10.10
2023-02-19T11:33:54.314Z,10.13
2023-02-19T11:35:17.926Z,10.20
2023-02-19T11:36:31.928Z,10.15
2023-02-19T11:37:35.044Z,10.28
2023-02-19T11:38:37.740Z,10.39
2023-02-19T11:39:40.897Z,10.36
2023-02-19T11:40:47.268Z,10.36
2023-02-19T11:42:13.845Z,10.41
2023-02-19T11:43:38.669Z,10.39
2023-02-19T11:44:47.864Z,10.41
2023-02-19T11:45:54.329Z,10.49
2023-02-19T11:47:02.079Z,10.50
2023-02-19T11:48:30.911Z,10.57
2023-02-19T11:49:40.387Z,10.51
2023-02-19T11:50:53.170Z,10.42
2023-02-19T11:52:17.150Z,10.41
2023-02-19T11:53:28.826Z,10.49
2023-02-19T11:54:48.585Z,10.59
2023-02-19T11:55:57.492Z,10.62
2023-02-19T11:57:09.709Z,10.48
2023-02-19T11:58:33.768Z,10.60
2023-02-19T11:59:43.628Z,10.68
2023-02-19T12:00:52.943Z,10.75
2023-02-19T12:02:17.119Z,10.69
2023-02-19T12:03:35.430Z,10.67
2023-02-19T12:05:05.482Z,10.72
2023-02-19T12:06:20.763Z,10.77
2023-02-19T12:07:35.397Z,10.79
2023-02-19T12:08:51.855Z,10.80
2023-02-19T12:10:05.259Z,10.72
2023-02-19T12:11:29.848Z,10.68
2023-02-19T12:12:53.484Z,10.66
2023-02-19T12:14:17.633Z,10.64
2023-02-19T12:15:50.146Z,10.68
2023-02-19T12:16:55.028Z,10.68
2023-02-19T12:18:16.906Z,10.68
2023-02-19T12:19:39.946Z,10.57
2023-02-19T12:20:48.190Z,10.43
2023-02-19T12:22:02.437Z,10.40
2023-02-19T12:23:25.538Z,10.45
2023-02-19T12:25:06.404Z,10.49
2023-02-19T12:26:15.703Z,10.54
2023-02-19T12:27:25.757Z,10.65
2023-02-19T12:28:40.519Z,10.72
2023-02-19T12:29:54.916Z,10.72
2023-02-19T12:31:18.690Z,10.76
2023-02-19T12:32:42.860Z,10.81
2023-02-19T12:34:09.777Z,10.80
2023-02-19T12:35:44.486Z,10.88
2023-02-19T12:36:54.786Z,10.71
2023-02-19T12:38:04.414Z,10.67
2023-02-19T12:39:14.796Z,10.70
2023-02-19T12:40:29.231Z,10.82
2023-02-19T12:41:39.127Z,10.84
2023-02-19T12:42:51.675Z,10.96
2023-02-19T12:43:56.563Z,11.09
2023-02-19T12:45:01.428Z,11.27
2023-02-19T12:46:06.137Z,11.34
2023-02-19T12:47:15.499Z,11.45
2023-02-19T12:48:24.211Z,11.65
2023-02-19T12:49:29.454Z,11.75
2023-02-19T12:50:32.162Z,11.71
2023-02-19T12:51:40.486Z,11.60
2023-02-19T12:52:43.495Z,11.56
2023-02-19T12:53:49.250Z,11.63
2023-02-19T12:54:55.665Z,11.60
2023-02-19T12:56:00.866Z,11.37
2023-02-19T12:57:05.687Z,11.39
2023-02-19T12:58:11.787Z,11.50
2023-02-19T12:59:17.703Z,11.54
2023-02-19T13:00:31.376Z,11.47
2023-02-19T13:01:36.276Z,11.52
2023-02-19T13:02:43.250Z,11.59
2023-02-19T13:03:49.329Z,11.69
2023-02-19T13:04:57.418Z,11.82
2023-02-19T13:06:04.158Z,11.95
2023-02-19T13:07:10.775Z,12.03
2023-02-19T13:08:16.110Z,12.19
2023-02-19T13:09:24.483Z,12.35
2023-02-19T13:10:29.334Z,12.20
2023-02-19T13:11:37.306Z,12.23
2023-02-19T13:12:41.305Z,12.20
2023-02-19T13:13:46.457Z,12.22
2023-02-19T13:14:51.238Z,12.20
2023-02-19T13:15:55.755Z,12.25
2023-02-19T13:17:01.505Z,12.30
2023-02-19T13:18:06.786Z,12.27
2023-02-19T13:19:11.611Z,12.32
2023-02-19T13:20:20.407Z,12.20
2023-02-19T13:21:41.888Z,12.01
2023-02-19T13:23:05.774Z,12.07
2023-02-19T13:24:12.724Z,11.88
2023-02-19T13:25:16.209Z,11.92
2023-02-19T13:26:29.413Z,11.98
2023-02-19T13:27:49.924Z,11.91
2023-02-19T13:29:04.915Z,11.92
2023-02-19T13:30:23.310Z,11.73
2023-02-19T13:31:54.058Z,11.62
2023-02-19T13:33:02.815Z,11.62
2023-02-19T13:34:10.906Z,11.64
2023-02-19T13:35:23.697Z,11.55
2023-02-19T13:36:27.748Z,11.62
2023-02-19T13:37:32.337Z,11.54
2023-02-19T13:38:39.108Z,11.42
2023-02-19T13:39:48.657Z,11.38
2023-02-19T13:40:55.873Z,11.40
2023-02-19T13:42:00.066Z,11.35
2023-02-19T13:43:05.929Z,11.37
2023-02-19T13:44:16.937Z,11.31
2023-02-19T13:45:22.256Z,11.23
2023-02-19T13:46:25.864Z,11.13
2023-02-19T13:47:48.213Z,11.17
2023-02-19T13:49:41.655Z,11.16
2023-02-19T13:50:44.344Z,11.03
2023-02-19T13:51:49.606Z,10.98
2023-02-19T13:52:53.151Z,10.98
2023-02-19T13:53:58.985Z,10.91
2023-02-19T13:55:34.857Z,10.94
2023-02-19T13:56:39.450Z,10.82
2023-02-19T13:57:41.706Z,10.95
2023-02-19T13:58:57.249Z,11.02
2023-02-19T14:00:00.384Z,10.97
2023-02-19T14:01:02.901Z,11.00
2023-02-19T14:02:29.338Z,10.97
2023-02-19T14:03:44.895Z,10.95
2023-02-19T14:04:51.511Z,10.97
2023-02-19T14:06:02.674Z,10.97
2023-02-19T14:07:33.869Z,10.99
2023-02-19T14:08:51.320Z,10.87
2023-02-19T14:09:53.181Z,10.86
2023-02-19T14:10:58.403Z,10.82
2023-02-19T14:12:04.918Z,10.84
2023-02-19T14:13:09.125Z,10.91
2023-02-19T14:14:28.279Z,10.96
2023-02-19T14:15:43.929Z,10.93
2023-02-19T14:17:04.763Z,10.92
2023-02-19T14:18:40.890Z,10.88
2023-02-19T14:19:56.198Z,10.98
2023-02-19T14:21:08.132Z,10.92
2023-02-19T14:22:48.683Z,10.78
2023-02-19T14:23:53.570Z,10.54
2023-02-19T14:24:55.826Z,10.49
2023-02-19T14:26:01.230Z,10.53
2023-02-19T14:27:03.352Z,10.46
2023-02-19T14:28:12.506Z,10.45
2023-02-19T14:29:16.523Z,10.48
2023-02-19T14:30:21.227Z,10.53
2023-02-19T14:31:29.057Z,10.57
2023-02-19T14:32:30.987Z,10.58